Abad Goth, Pakistan

2:01 AM PKT on December 05, 2016 (GMT +0500)
Sukkur | | Change Station

Elev 197 ft 27.72 °N, 68.79 °E | Updated 1 minute ago

Haze
Haze
63 °F
Feels Like 63 °F
N
0
Wind Variable Wind from North

Today
High -- | Low -- °F
--% Chance of Precip.
Yesterday
High -- | Low -- °F
Precip. -- in
Pressure 30.04 in
Visibility 1.9 miles
Clouds
Dew Point 55 °F
Humidity 77%
Rainfall 0.00 in
Snow Depth Not available.
7:02 AM 5:30 PM
Waxing Crescent, 25% visible
METAR OPSK 042100Z 00000KT 3000 HZ NSC 17/13 Q1017 NOSIG
Pressure 30.04 in
Visibility 1.9 miles
Clouds
Dew Point 55 °F
Humidity 77%
Rainfall 0.00 in
Snow Depth Not available.
7:02 AM 5:30 PM
Waxing Crescent, 25% visible
METAR OPSK 042100Z 00000KT 3000 HZ NSC 17/13 Q1017 NOSIG

10-Day Weather Forecast

No radar image for this location.
×

Almanac

Astronomy

Dec. 05, 2016 Rise Set
Actual Time
Civil Twilight
Nautical Twilight
Astronomical Twilight
Moon
Length of Visible Light
Length of Day
Tomorrow will be .
, % of the Moon is Illuminated

Today's Extremes

Country Highs Country Lows

Community

WunderPhotos

Upload Photos

1,955,670 photos uploaded!

WunderBlog® & News

Nearby

Air Quality

  Air Quality AQ Index Pollutant
Not available.

Snow Depth

Station Depth Elevation

Earthquake Activity

City Distance Mag. Time & Date
Minimum magnitude displayed is 2.5.

Coastal Water Temperatures

Place Temperature

Stations

Nearby Weather Stations

Station Location Temp. Windchill Dew Point Humidity Wind Precip. Elev Updated Type